Time;durP1;ratioP1;P1;durP2;ratioP2;P2;SDS_P1;SDS_P2;PMS_P1;PMS_P2;Temp;Humidity;BMP_temperature;BMP_pressure;BME280_temperature;BME280_humidity;BME280_pressure;Samples;Min_cycle;Max_cycle;Signal;HPM_P1;HPM_P2
2021/01/22 00:01:56;;;;;;;1.42;0.70;;;;;;;10.73;58.43;96901.97;4916614;29;20063;-67
2021/01/22 00:04:22;;;;;;;0.80;0.60;;;;;;;10.70;59.29;96903.88;4916585;29;20088;-67
2021/01/22 00:06:47;;;;;;;0.77;0.70;;;;;;;10.68;59.41;96916.88;4916526;29;20032;-67
2021/01/22 00:09:12;;;;;;;0.70;0.70;;;;;;;10.64;59.89;96909.34;4916540;29;20030;-71
2021/01/22 00:11:38;;;;;;;1.63;0.90;;;;;;;10.67;60.34;96899.66;4916539;29;20107;-70
2021/01/22 00:14:03;;;;;;;0.60;0.60;;;;;;;10.70;59.56;96899.53;4916492;29;20505;-71
2021/01/22 00:16:28;;;;;;;0.60;0.60;;;;;;;10.60;61.02;96893.13;4915666;29;20509;-71
2021/01/22 00:18:54;;;;;;;0.65;0.65;;;;;;;10.51;61.08;96878.88;4916406;29;20039;-71
2021/01/22 00:21:19;;;;;;;1.50;0.70;;;;;;;10.41;61.56;96881.97;4916319;29;20035;-71
2021/01/22 00:23:44;;;;;;;0.90;0.90;;;;;;;10.43;61.66;96875.78;4916202;29;20032;-71
2021/01/22 00:26:09;;;;;;;1.08;0.85;;;;;;;10.42;61.78;96858.59;4916357;29;20102;-70
2021/01/22 00:28:35;;;;;;;1.83;0.90;;;;;;;10.41;61.71;96856.91;4916351;29;20059;-72
2021/01/22 00:31:01;;;;;;;0.70;0.70;;;;;;;10.33;62.17;96878.91;4916124;29;20055;-72
2021/01/22 00:33:26;;;;;;;0.80;0.80;;;;;;;10.41;61.87;96876.78;4916317;29;20398;-70
2021/01/22 00:35:51;;;;;;;0.60;0.60;;;;;;;10.36;62.48;96879.59;4916065;29;20111;-72
2021/01/22 00:38:17;;;;;;;1.70;1.30;;;;;;;10.38;61.86;96871.75;4916145;29;20032;-70
2021/01/22 00:40:42;;;;;;;0.60;0.60;;;;;;;10.40;61.75;96849.25;4916083;29;20028;-72
2021/01/22 00:43:08;;;;;;;2.13;0.90;;;;;;;10.29;62.28;96841.97;4916178;29;20056;-72
2021/01/22 00:45:33;;;;;;;0.70;0.70;;;;;;;10.24;62.83;96846.53;4916031;29;20039;-72
2021/01/22 00:47:58;;;;;;;2.08;1.00;;;;;;;10.24;62.52;96849.13;4916079;29;20389;-72
2021/01/22 00:50:24;;;;;;;0.70;0.70;;;;;;;10.20;63.00;96834.59;4915905;29;20735;-70
2021/01/22 00:52:49;;;;;;;0.90;0.85;;;;;;;10.15;63.46;96849.50;4916018;29;20389;-71
2021/01/22 00:55:15;;;;;;;0.80;0.80;;;;;;;10.09;63.44;96850.66;4916002;29;20024;-70
2021/01/22 00:57:40;;;;;;;0.88;0.75;;;;;;;10.04;63.65;96861.22;4915999;29;20152;-72
2021/01/22 07:02:38;;;;;;;1.60;0.85;;;;;;;9.39;60.78;96652.28;4897881;29;20575;-67
2021/01/22 07:05:28;;;;;;;3.38;1.02;;;;;;;9.43;60.46;96653.81;4898816;29;20032;-67
2021/01/22 07:07:53;;;;;;;1.88;0.98;;;;;;;9.42;60.10;96660.72;4884073;29;20037;-67
2021/01/22 07:10:19;;;;;;;4.68;0.82;;;;;;;9.45;59.85;96658.00;4898563;29;20028;-67
2021/01/22 07:12:47;;;;;;;2.35;0.90;;;;;;;9.53;59.61;96655.88;4893590;29;20031;-67
2021/01/22 07:15:21;;;;;;;46.38;19.90;;;;;;;9.55;59.60;96667.91;4884636;29;20037;-74
2021/01/22 07:18:01;;;;;;;5.65;1.80;;;;;;;9.43;59.86;96654.66;4892841;29;20025;-75
2021/01/22 07:20:28;;;;;;;3.50;1.15;;;;;;;9.57;59.89;96663.47;4881372;29;20025;-75
2021/01/22 07:23:01;;;;;;;4.93;1.23;;;;;;;9.63;59.18;96652.84;4891639;29;20033;-75
2021/01/22 07:25:38;;;;;;;2.67;1.15;;;;;;;9.69;58.67;96673.25;4910787;29;20028;-75
2021/01/22 07:28:05;;;;;;;5.50;1.38;;;;;;;9.60;59.14;96665.94;4893201;29;20390;-75
2021/01/22 07:30:41;;;;;;;3.00;1.08;;;;;;;9.66;58.88;96675.97;4888268;29;20040;-75
2021/01/22 07:33:27;;;;;;;18.50;10.80;;;;;;;9.71;58.27;96648.97;4885035;29;20061;-74
2021/01/22 07:36:09;;;;;;;11.23;5.53;;;;;;;9.73;58.36;96673.03;4883300;29;20044;-75
2021/01/22 07:38:35;;;;;;;6.15;2.17;;;;;;;9.74;58.53;96671.28;4889029;29;20081;-75
2021/01/22 07:41:01;;;;;;;12.50;5.07;;;;;;;9.69;58.61;96671.50;4892116;29;20384;-74
2021/01/22 07:43:27;;;;;;;8.18;3.17;;;;;;;9.65;58.85;96666.53;4882086;29;20051;-75
2021/01/22 07:46:12;;;;;;;3.20;1.65;;;;;;;9.68;58.29;96659.47;4898169;29;20080;-74
2021/01/22 07:48:39;;;;;;;8.75;3.42;;;;;;;9.70;58.55;96661.97;4887631;29;20063;-74
2021/01/22 07:51:31;;;;;;;22.30;8.02;;;;;;;9.74;58.25;96669.50;4892207;29;20570;-74
2021/01/22 07:53:57;;;;;;;14.50;6.50;;;;;;;9.86;57.80;96670.66;4883485;29;20028;-75
2021/01/22 07:56:31;;;;;;;14.57;5.10;;;;;;;9.94;57.49;96671.13;4897930;29;20029;-74
2021/01/22 07:58:56;;;;;;;4.28;1.30;;;;;;;9.99;57.45;96669.16;4885624;29;20112;-74
2021/01/22 08:01:24;;;;;;;4.68;2.13;;;;;;;10.05;57.47;96679.19;4903698;29;20118;-74
2021/01/22 08:03:50;;;;;;;7.43;2.60;;;;;;;10.09;57.42;96668.69;4904767;29;20035;-75
2021/01/22 08:06:15;;;;;;;4.43;1.63;;;;;;;10.23;56.77;96676.59;4928761;29;20422;-75
2021/01/22 08:08:41;;;;;;;27.23;8.32;;;;;;;10.35;56.08;96676.03;4926596;29;20024;-75
2021/01/22 08:11:21;;;;;;;2.97;1.25;;;;;;;10.43;56.28;96684.22;4921793;29;20472;-74
2021/01/22 08:13:47;;;;;;;7.15;3.05;;;;;;;10.45;55.95;96682.41;4921508;29;20031;-74
2021/01/22 08:16:20;;;;;;;8.20;2.90;;;;;;;10.58;55.80;96681.75;4929066;29;20024;-74
2021/01/22 08:18:46;;;;;;;8.50;2.70;;;;;;;11.45;53.75;96667.53;4927155;29;20031;-74
2021/01/22 08:21:11;;;;;;;6.85;1.90;;;;;;;13.04;49.11;96660.81;4920939;29;20031;-74
2021/01/22 08:23:42;;;;;;;6.60;2.75;;;;;;;14.63;45.50;96649.66;4931916;29;20037;-74
2021/01/22 08:26:11;;;;;;;10.68;3.28;;;;;;;15.15;43.53;96661.69;4921952;29;20019;-75
2021/01/22 08:28:38;;;;;;;5.10;1.58;;;;;;;15.31;43.08;96656.22;4925744;29;20091;-75
2021/01/22 08:31:05;;;;;;;2.03;0.70;;;;;;;16.49;40.81;96661.50;4929214;29;20090;-75
2021/01/22 08:33:31;;;;;;;3.08;1.42;;;;;;;15.54;42.15;96662.41;4919350;29;20028;-75
2021/01/22 08:35:56;;;;;;;10.02;3.22;;;;;;;15.25;43.03;96672.31;4930489;29;20032;-75
2021/01/22 08:38:24;;;;;;;1.83;1.17;;;;;;;14.56;44.47;96664.91;4898235;29;20028;-74
2021/01/22 08:40:49;;;;;;;5.32;1.88;;;;;;;14.39;44.98;96665.16;4904529;29;20032;-75
2021/01/22 08:43:15;;;;;;;4.75;1.70;;;;;;;15.59;42.19;96653.31;4911846;29;20102;-75
2021/01/22 08:45:41;;;;;;;5.07;1.77;;;;;;;15.17;42.74;96655.41;4900165;29;20057;-75
2021/01/22 08:48:08;;;;;;;4.15;1.77;;;;;;;15.57;41.99;96655.19;4925589;29;20060;-75
2021/01/22 08:50:34;;;;;;;5.72;1.48;;;;;;;16.22;41.03;96642.66;4923315;29;20036;-75
2021/01/22 08:53:10;;;;;;;4.20;1.10;;;;;;;16.74;40.29;96633.50;4921518;29;20520;-75
2021/01/22 08:55:36;;;;;;;2.33;0.88;;;;;;;16.93;38.87;96633.72;4931675;29;20028;-75
2021/01/22 08:58:06;;;;;;;4.40;1.88;;;;;;;18.21;37.00;96638.25;4920846;29;20197;-75
2021/01/22 09:00:32;;;;;;;4.50;1.23;;;;;;;18.96;34.76;96637.19;4925135;29;20489;-75
2021/01/22 09:02:58;;;;;;;2.80;1.15;;;;;;;16.48;39.84;96665.03;4922201;28;20047;-75
2021/01/22 09:05:25;;;;;;;2.63;0.90;;;;;;;17.61;38.12;96651.00;4906802;29;20028;-75
2021/01/22 09:08:11;;;;;;;4.70;0.75;;;;;;;16.77;39.23;96648.94;4904366;29;20036;-76
2021/01/22 09:10:42;;;;;;;2.17;0.80;;;;;;;16.21;40.13;96638.38;4904680;29;20500;-75
2021/01/22 09:13:11;;;;;;;4.40;0.80;;;;;;;16.95;39.69;96648.34;4904488;29;20140;-75
2021/01/22 09:15:38;;;;;;;1.48;0.60;;;;;;;15.87;41.01;96635.66;4905958;29;20039;-75
2021/01/22 09:18:14;;;;;;;6.38;0.73;;;;;;;15.56;41.89;96650.06;4905135;29;20036;-75
2021/01/22 09:20:41;;;;;;;5.10;0.95;;;;;;;16.20;41.05;96640.16;4902420;29;20454;-76
2021/01/22 09:23:07;;;;;;;4.00;1.05;;;;;;;14.86;43.19;96646.31;4902600;29;20025;-76
2021/01/22 09:25:32;;;;;;;3.53;0.85;;;;;;;14.50;43.43;96644.44;4903503;29;20034;-76
2021/01/22 09:27:57;;;;;;;3.28;0.98;;;;;;;14.71;43.92;96636.94;4904671;29;20394;-75
2021/01/22 09:30:25;;;;;;;8.85;0.85;;;;;;;14.58;44.06;96631.72;4905526;29;20027;-75
2021/01/22 09:32:58;;;;;;;4.78;1.30;;;;;;;14.02;46.51;96649.41;4905265;29;20020;-75
2021/01/22 09:35:26;;;;;;;2.50;0.90;;;;;;;13.94;46.11;96645.63;4904989;29;20728;-75
2021/01/22 09:37:52;;;;;;;1.92;1.00;;;;;;;13.40;47.28;96643.88;4904003;29;21030;-75
2021/01/22 09:40:19;;;;;;;3.25;0.70;;;;;;;13.31;47.47;96639.25;4904381;29;20091;-75
2021/01/22 09:42:44;;;;;;;5.72;1.40;;;;;;;13.73;46.80;96642.63;4906327;29;20103;-75
2021/01/22 09:45:11;;;;;;;5.18;1.20;;;;;;;14.01;46.49;96632.06;4904925;29;20024;-75
2021/01/22 09:47:37;;;;;;;4.53;1.52;;;;;;;13.75;46.61;96635.56;4904294;29;20024;-75
2021/01/22 09:50:05;;;;;;;2.80;0.93;;;;;;;14.09;46.45;96645.44;4907768;29;20564;-75
2021/01/22 09:52:30;;;;;;;1.27;0.80;;;;;;;14.65;44.38;96648.63;4909258;29;20047;-75
2021/01/22 09:54:57;;;;;;;2.97;0.90;;;;;;;14.67;44.76;96647.69;4905538;29;20393;-75
2021/01/22 09:57:23;;;;;;;2.05;1.02;;;;;;;14.71;44.97;96641.31;4908054;29;20028;-75
2021/01/22 09:59:48;;;;;;;3.67;1.23;;;;;;;14.62;44.54;96642.78;4905478;29;20036;-75
2021/01/22 10:02:13;;;;;;;4.35;0.95;;;;;;;14.84;44.02;96648.19;4906881;29;20103;-75
2021/01/22 10:04:39;;;;;;;6.00;1.05;;;;;;;15.14;43.73;96645.22;4906921;29;20043;-75
2021/01/22 10:07:04;;;;;;;3.55;1.02;;;;;;;15.85;42.91;96634.94;4908100;29;20051;-75
2021/01/22 10:09:31;;;;;;;7.03;0.93;;;;;;;14.86;43.81;96640.25;4909836;29;20508;-76
2021/01/22 10:11:56;;;;;;;7.65;1.00;;;;;;;13.98;46.28;96645.31;4908180;29;20043;-75
2021/01/22 10:14:21;;;;;;;2.03;0.93;;;;;;;13.51;47.66;96646.63;4907917;29;20031;-75
2021/01/22 10:16:47;;;;;;;2.33;0.90;;;;;;;13.13;48.26;96638.63;4904762;29;20124;-75
2021/01/22 10:19:12;;;;;;;1.92;1.00;;;;;;;12.93;49.06;96642.47;4908249;29;20118;-75
2021/01/22 10:21:37;;;;;;;4.03;1.20;;;;;;;12.97;49.51;96638.75;4906152;29;20027;-75
2021/01/22 10:24:03;;;;;;;5.50;1.08;;;;;;;13.08;48.70;96636.31;4905028;29;20525;-75
2021/01/22 10:26:28;;;;;;;2.20;1.15;;;;;;;13.29;49.06;96630.72;4906601;29;20730;-76
2021/01/22 10:28:54;;;;;;;4.68;2.00;;;;;;;13.31;48.15;96616.69;4906570;29;20505;-75
2021/01/22 10:31:20;;;;;;;3.72;1.20;;;;;;;13.41;48.61;96611.72;4906102;29;20028;-75
2021/01/22 10:33:46;;;;;;;3.67;1.85;;;;;;;13.23;49.11;96607.69;4907503;29;20035;-75
2021/01/22 10:36:12;;;;;;;3.92;1.27;;;;;;;13.11;49.62;96604.91;4907805;29;20032;-75
2021/01/22 10:38:38;;;;;;;2.45;0.95;;;;;;;12.99;49.62;96610.88;4904326;29;20070;-75
2021/01/22 10:41:03;;;;;;;6.97;1.27;;;;;;;12.99;48.93;96608.28;4906594;29;20115;-73
2021/01/22 10:43:29;;;;;;;3.58;0.68;;;;;;;13.06;49.80;96617.38;4907244;29;20036;-73
2021/01/22 10:45:55;;;;;;;1.42;1.10;;;;;;;13.11;49.38;96625.72;4909412;29;20119;-75
2021/01/22 10:48:21;;;;;;;1.92;0.98;;;;;;;13.08;49.57;96610.31;4904342;29;20496;-75
2021/01/22 10:50:46;;;;;;;6.13;1.10;;;;;;;13.33;48.96;96611.38;4906964;29;20032;-75
2021/01/22 10:53:12;;;;;;;30.90;10.27;;;;;;;13.67;47.45;96604.81;4907887;29;20425;-75
2021/01/22 10:55:38;;;;;;;9.13;2.95;;;;;;;13.32;47.92;96612.31;4908859;29;20028;-76
2021/01/22 10:58:03;;;;;;;1.65;0.90;;;;;;;13.44;47.99;96606.34;4905281;29;20034;-75
2021/01/22 11:00:29;;;;;;;11.45;4.22;;;;;;;14.48;44.95;96607.25;4905073;29;20032;-75
2021/01/22 11:02:54;;;;;;;19.98;7.05;;;;;;;15.75;42.72;96602.59;4908959;29;20402;-75
2021/01/22 11:05:20;;;;;;;8.27;1.85;;;;;;;16.77;40.66;96599.25;4909164;29;20059;-75
2021/01/22 11:07:45;;;;;;;7.65;2.45;;;;;;;16.47;41.10;96598.00;4906661;29;20032;-76
2021/01/22 11:10:11;;;;;;;10.70;4.00;;;;;;;16.90;41.01;96592.09;4904294;29;20036;-76
2021/01/22 11:12:36;;;;;;;6.55;2.25;;;;;;;15.73;42.78;96594.06;4908305;29;20115;-76
2021/01/22 11:15:03;;;;;;;4.93;2.75;;;;;;;15.16;44.56;96587.72;4909112;29;20557;-75
2021/01/22 11:17:29;;;;;;;4.40;1.60;;;;;;;14.81;45.41;96580.63;4906709;29;20406;-75
2021/01/22 11:19:54;;;;;;;0.88;0.88;;;;;;;14.11;45.73;96575.00;4909019;29;20038;-75
2021/01/22 11:22:19;;;;;;;4.82;1.08;;;;;;;14.39;45.55;96569.59;4905493;29;20016;-75
2021/01/22 11:24:45;;;;;;;1.20;0.80;;;;;;;15.00;44.80;96568.88;4907525;29;20032;-76
2021/01/22 11:27:10;;;;;;;1.15;0.88;;;;;;;14.62;44.87;96565.44;4907138;29;20035;-76
2021/01/22 11:29:37;;;;;;;1.80;0.90;;;;;;;14.80;44.61;96567.69;4907243;29;20036;-76
2021/01/22 11:32:02;;;;;;;1.02;0.70;;;;;;;14.76;44.99;96567.06;4904796;29;20123;-75
2021/01/22 11:34:28;;;;;;;6.43;1.10;;;;;;;14.55;45.36;96564.19;4907627;29;20932;-76
2021/01/22 11:36:53;;;;;;;1.20;0.90;;;;;;;14.30;46.17;96564.19;4904353;29;20478;-74
2021/01/22 11:39:18;;;;;;;1.80;0.98;;;;;;;14.00;46.89;96567.94;4907177;29;20032;-74
2021/01/22 11:41:44;;;;;;;11.02;3.92;;;;;;;13.70;47.60;96564.78;4905142;29;20031;-75
2021/01/22 11:44:09;;;;;;;2.15;1.00;;;;;;;13.61;47.52;96567.03;4906002;29;20477;-74
2021/01/22 11:46:36;;;;;;;2.75;0.90;;;;;;;13.63;47.48;96564.31;4905265;29;20544;-74
2021/01/22 11:49:02;;;;;;;1.73;1.13;;;;;;;13.99;46.87;96558.44;4904641;29;20383;-74
2021/01/22 11:51:27;;;;;;;4.05;1.20;;;;;;;15.59;42.43;96555.88;4905514;29;20028;-74
2021/01/22 11:53:53;;;;;;;2.00;0.85;;;;;;;15.71;41.37;96554.16;4906642;29;20063;-74
2021/01/22 11:56:18;;;;;;;2.13;0.85;;;;;;;14.95;43.14;96545.75;4907071;29;20039;-74
2021/01/22 11:58:43;;;;;;;7.47;1.40;;;;;;;15.09;42.68;96545.59;4906288;29;20035;-74
2021/01/22 12:01:09;;;;;;;7.13;3.53;;;;;;;15.40;42.52;96540.75;4920972;29;20073;-74
2021/01/22 12:03:35;;;;;;;4.70;1.40;;;;;;;14.72;42.49;96543.94;4905007;29;20459;-74
2021/01/22 12:06:00;;;;;;;2.75;0.93;;;;;;;14.38;43.69;96535.84;4906895;29;20036;-75
2021/01/22 12:08:25;;;;;;;2.10;0.57;;;;;;;14.13;44.17;96532.31;4907068;29;20040;-68
2021/01/22 12:10:51;;;;;;;0.90;0.80;;;;;;;14.01;44.35;96527.09;4904218;29;20127;-68
2021/01/22 12:13:16;;;;;;;1.98;0.82;;;;;;;13.92;45.05;96518.13;4904530;29;20029;-75
2021/01/22 12:15:42;;;;;;;2.55;1.20;;;;;;;14.01;45.37;96527.94;4907529;29;20028;-68
2021/01/22 12:18:07;;;;;;;2.55;1.40;;;;;;;13.97;44.87;96530.84;4907720;29;20028;-69
2021/01/22 12:20:32;;;;;;;2.30;0.80;;;;;;;13.91;44.86;96516.47;4906759;29;20158;-68
2021/01/22 12:22:57;;;;;;;1.15;0.63;;;;;;;14.01;44.25;96507.09;4901961;29;21026;-68
2021/01/22 12:25:23;;;;;;;2.17;0.88;;;;;;;14.14;44.90;96512.31;4907824;29;20332;-68
2021/01/22 12:27:48;;;;;;;1.52;1.08;;;;;;;14.36;45.00;96503.84;4901719;29;20458;-69
2021/01/22 12:30:14;;;;;;;1.27;0.73;;;;;;;14.26;45.07;96510.63;4907345;29;20086;-69
2021/01/22 12:32:39;;;;;;;1.65;0.80;;;;;;;14.39;44.26;96501.84;4904671;29;20047;-68
2021/01/22 12:35:05;;;;;;;1.02;0.90;;;;;;;14.56;43.76;96503.31;4905829;29;20127;-68
2021/01/22 12:37:31;;;;;;;3.28;0.68;;;;;;;14.68;43.32;96485.13;4907688;29;20477;-68
2021/01/22 12:39:57;;;;;;;1.05;0.73;;;;;;;14.57;42.96;96483.31;4904478;29;20080;-69
2021/01/22 12:42:22;;;;;;;1.67;0.73;;;;;;;14.47;43.55;96483.09;4901841;29;20441;-68
2021/01/22 12:44:47;;;;;;;4.57;0.98;;;;;;;14.54;44.58;96483.50;4907689;29;20040;-68
2021/01/22 12:47:13;;;;;;;0.77;0.73;;;;;;;14.67;44.30;96479.09;4905985;29;20036;-69
2021/01/22 12:49:38;;;;;;;1.73;0.60;;;;;;;14.73;43.49;96477.81;4902411;29;20024;-68
2021/01/22 12:52:05;;;;;;;2.42;0.70;;;;;;;15.21;42.30;96472.59;4902680;29;20043;-68
2021/01/22 12:54:30;;;;;;;3.40;0.60;;;;;;;15.68;41.18;96467.31;4904371;29;20131;-68
2021/01/22 12:56:55;;;;;;;3.50;0.80;;;;;;;15.62;41.59;96467.75;4907661;29;20481;-68
2021/01/22 12:59:21;;;;;;;1.70;0.60;;;;;;;15.52;41.65;96461.56;4902355;29;20028;-68
2021/01/22 13:01:46;;;;;;;1.42;0.80;;;;;;;15.25;41.78;96468.81;4903083;29;20387;-69
2021/01/22 13:04:11;;;;;;;3.97;0.90;;;;;;;14.82;42.82;96464.13;4903612;29;20038;-68
2021/01/22 13:06:37;;;;;;;3.25;0.60;;;;;;;14.63;43.75;96460.22;4907372;29;20024;-68
2021/01/22 13:09:02;;;;;;;1.33;0.70;;;;;;;14.45;44.13;96469.31;4903649;29;20059;-68
2021/01/22 13:11:27;;;;;;;0.85;0.60;;;;;;;14.46;44.77;96457.97;4906804;29;20028;-68
2021/01/22 13:13:53;;;;;;;7.22;1.60;;;;;;;14.40;44.89;96461.81;4907405;29;20056;-68
2021/01/22 13:16:20;;;;;;;1.45;1.20;;;;;;;14.45;44.78;96453.69;4906985;29;20032;-72
2021/01/22 13:18:46;;;;;;;1.95;1.20;;;;;;;14.36;44.77;96459.56;4905146;29;20050;-72
2021/01/22 13:21:11;;;;;;;1.75;0.98;;;;;;;14.27;45.41;96455.00;4905970;29;20016;-72
2021/01/22 13:23:37;;;;;;;6.40;1.98;;;;;;;14.06;44.46;96442.50;4798270;29;20045;-71
2021/01/22 13:26:04;;;;;;;7.00;2.92;;;;;;;14.02;44.21;96435.88;4918284;29;20545;-73
2021/01/22 13:28:29;;;;;;;4.15;1.70;;;;;;;14.05;43.92;96433.03;4910767;29;20043;-72
2021/01/22 13:30:54;;;;;;;6.40;1.98;;;;;;;14.17;44.38;96422.69;4911323;29;20036;-72
2021/01/22 13:33:20;;;;;;;2.33;1.00;;;;;;;14.37;44.70;96416.94;4910910;29;20127;-73
2021/01/22 13:35:45;;;;;;;13.48;5.70;;;;;;;14.48;43.58;96427.44;4910928;29;20111;-72
2021/01/22 13:38:11;;;;;;;11.45;6.82;;;;;;;14.42;44.42;96414.84;4910437;29;20482;-71
2021/01/22 13:40:36;;;;;;;4.88;2.28;;;;;;;14.41;44.25;96410.56;4910917;29;20055;-72
2021/01/22 13:43:01;;;;;;;2.75;1.00;;;;;;;14.50;44.60;96407.31;4910093;29;20549;-71
2021/01/22 13:45:30;;;;;;;8.18;3.25;;;;;;;14.40;44.90;96408.88;4911740;29;20035;-73
2021/01/22 13:47:57;;;;;;;4.38;1.38;;;;;;;14.48;44.78;96409.22;4910970;29;20446;-73
2021/01/22 13:50:22;;;;;;;2.10;1.25;;;;;;;14.43;44.13;96403.47;4910229;29;20036;-72
2021/01/22 13:52:48;;;;;;;4.72;1.27;;;;;;;14.40;45.30;96414.94;4924292;29;20032;-72
2021/01/22 13:55:13;;;;;;;2.63;1.15;;;;;;;14.42;45.20;96420.03;4910306;29;20028;-72
2021/01/22 13:57:39;;;;;;;6.82;2.28;;;;;;;14.32;45.43;96434.66;4911026;29;20024;-73
2021/01/22 14:00:04;;;;;;;25.48;13.32;;;;;;;14.13;45.86;96433.34;4910498;29;20123;-72
2021/01/22 14:02:30;;;;;;;4.13;1.38;;;;;;;13.93;47.00;96438.28;4909376;29;20072;-72
2021/01/22 14:04:55;;;;;;;13.20;4.50;;;;;;;13.03;50.36;96445.97;4911249;29;20032;-71
2021/01/22 14:07:20;;;;;;;11.02;5.00;;;;;;;12.87;52.40;96468.72;4910134;29;21285;-71
2021/01/22 14:09:46;;;;;;;11.75;6.93;;;;;;;12.32;54.53;96474.78;4910891;29;20023;-72
2021/01/22 14:12:11;;;;;;;12.57;6.30;;;;;;;12.05;56.92;96498.91;4910239;29;20032;-72
2021/01/22 14:14:36;;;;;;;5.65;2.30;;;;;;;11.78;58.84;96511.75;4910183;29;20024;-72
2021/01/22 14:17:02;;;;;;;6.30;2.80;;;;;;;10.67;63.34;96521.53;4909942;29;20028;-71
2021/01/22 14:19:27;;;;;;;8.35;4.30;;;;;;;10.55;63.77;96528.25;4911171;29;20036;-72
2021/01/22 14:21:52;;;;;;;2.17;1.55;;;;;;;10.97;63.17;96537.13;4909143;29;20063;-72
2021/01/22 14:24:17;;;;;;;5.22;1.95;;;;;;;10.44;65.18;96553.00;4910298;29;20031;-71
2021/01/22 14:26:43;;;;;;;9.43;3.17;;;;;;;9.90;67.13;96565.28;4910206;29;20028;-72
2021/01/22 14:29:08;;;;;;;4.20;1.90;;;;;;;9.49;68.70;96573.38;4907647;29;20413;-71
2021/01/22 14:31:33;;;;;;;3.63;2.17;;;;;;;9.21;69.50;96571.31;4909623;29;20027;-72
2021/01/22 14:33:59;;;;;;;2.67;1.67;;;;;;;9.08;70.03;96576.22;4910241;29;20035;-72
2021/01/22 14:36:24;;;;;;;3.30;1.85;;;;;;;9.13;72.13;96574.25;4909779;29;20036;-71
2021/01/22 14:38:49;;;;;;;6.38;1.80;;;;;;;8.99;72.88;96585.25;4908973;29;20024;-73
2021/01/22 14:41:15;;;;;;;3.90;1.50;;;;;;;8.63;74.32;96602.44;4910298;29;20128;-72
2021/01/22 14:43:40;;;;;;;1.83;1.40;;;;;;;8.34;75.05;96603.69;4911318;29;20034;-71
2021/01/22 14:46:05;;;;;;;5.05;1.70;;;;;;;8.27;76.72;96603.13;4910691;29;20032;-70
2021/01/22 14:48:31;;;;;;;9.13;1.58;;;;;;;7.98;76.71;96623.28;4908756;29;20040;-71
2021/01/22 14:50:56;;;;;;;2.88;1.35;;;;;;;7.86;77.53;96623.78;4910119;29;20068;-72
2021/01/22 14:53:21;;;;;;;10.23;5.13;;;;;;;7.71;77.45;96624.44;4909827;29;20016;-72
2021/01/22 14:55:47;;;;;;;2.90;2.05;;;;;;;7.66;78.25;96623.78;4910830;29;20036;-72
2021/01/22 14:58:14;;;;;;;3.03;1.73;;;;;;;7.66;78.64;96626.38;4909764;29;20031;-71
2021/01/22 15:00:40;;;;;;;5.45;1.63;;;;;;;7.68;78.67;96593.63;4907398;29;20545;-71
2021/01/22 15:03:05;;;;;;;2.25;1.67;;;;;;;7.53;79.02;96571.06;4909362;29;20072;-72
2021/01/22 15:05:31;;;;;;;2.78;1.67;;;;;;;7.44;79.38;96575.69;4909216;29;20016;-72
2021/01/22 15:07:57;;;;;;;9.77;4.88;;;;;;;7.36;80.04;96606.09;4911777;29;20039;-72
2021/01/22 15:10:23;;;;;;;1.90;1.55;;;;;;;7.19;80.92;96626.53;4908735;29;20028;-71
2021/01/22 15:12:48;;;;;;;4.25;1.77;;;;;;;7.19;82.15;96631.66;4909144;29;20035;-71
2021/01/22 15:15:14;;;;;;;3.58;2.33;;;;;;;7.21;82.46;96632.47;4907740;29;20493;-72
2021/01/22 15:17:39;;;;;;;4.90;3.47;;;;;;;7.11;82.53;96624.25;4907712;29;20083;-72
2021/01/22 15:20:05;;;;;;;4.25;3.10;;;;;;;6.86;82.83;96639.78;4907376;29;20028;-73
2021/01/22 15:22:31;;;;;;;4.57;3.53;;;;;;;6.81;83.44;96657.13;4907729;29;20031;-72
2021/01/22 15:24:56;;;;;;;11.77;5.70;;;;;;;6.72;83.51;96648.91;4919893;28;20032;-68
2021/01/22 15:27:22;;;;;;;6.82;2.92;;;;;;;6.85;83.19;96643.25;4907735;29;20036;-67
2021/01/22 15:29:47;;;;;;;4.80;3.33;;;;;;;6.94;83.01;96632.63;4908311;29;20039;-74
2021/01/22 15:32:13;;;;;;;5.68;3.30;;;;;;;6.79;83.59;96633.19;4904717;29;20054;-73
2021/01/22 15:34:38;;;;;;;5.82;2.70;;;;;;;6.71;84.31;96650.66;4905958;29;20090;-74
2021/01/22 15:37:04;;;;;;;4.82;3.35;;;;;;;6.56;85.95;96657.22;4907899;29;20383;-74
2021/01/22 15:39:29;;;;;;;4.20;2.75;;;;;;;6.53;86.65;96661.66;4905820;29;20143;-74
2021/01/22 15:41:55;;;;;;;7.45;3.50;;;;;;;6.48;86.99;96663.50;4905595;29;20042;-73
2021/01/22 15:44:20;;;;;;;3.47;3.17;;;;;;;6.39;85.88;96670.69;4907112;29;20035;-74
2021/01/22 15:46:45;;;;;;;5.78;3.40;;;;;;;6.47;85.91;96666.97;4908461;29;20469;-74
2021/01/22 15:49:11;;;;;;;5.53;3.10;;;;;;;6.47;86.14;96666.97;4903124;29;20123;-74
2021/01/22 15:51:36;;;;;;;4.95;2.97;;;;;;;6.51;86.05;96677.13;4921926;29;20067;-76
2021/01/22 15:54:02;;;;;;;6.80;5.32;;;;;;;6.39;86.12;96673.25;4903723;29;20033;-73
2021/01/22 15:56:27;;;;;;;4.60;4.03;;;;;;;6.23;86.84;96669.53;4906937;29;20059;-74
2021/01/22 15:58:52;;;;;;;7.93;5.70;;;;;;;6.15;87.37;96672.38;4904894;29;20028;-74
2021/01/22 16:01:18;;;;;;;8.98;5.22;;;;;;;6.18;87.38;96676.56;4905115;29;20083;-74
2021/01/22 16:03:43;;;;;;;5.75;4.40;;;;;;;6.15;87.80;96671.53;4903780;29;20066;-73
2021/01/22 16:06:09;;;;;;;8.43;4.50;;;;;;;6.06;87.86;96677.00;4905792;29;20408;-74
2021/01/22 16:08:34;;;;;;;6.45;4.70;;;;;;;6.10;87.44;96683.72;4905613;29;20031;-74
2021/01/22 16:11:01;;;;;;;10.05;7.07;;;;;;;6.00;88.11;96683.19;4907159;29;20533;-73
2021/01/22 16:13:27;;;;;;;6.55;4.95;;;;;;;5.99;87.87;96672.94;4905972;29;20038;-74
2021/01/22 16:15:52;;;;;;;5.82;5.28;;;;;;;6.00;88.31;96654.06;4905921;29;20032;-74
2021/01/22 16:18:17;;;;;;;10.65;7.90;;;;;;;6.00;88.21;96649.78;4902658;29;20033;-75
2021/01/22 16:20:43;;;;;;;8.77;7.40;;;;;;;6.00;87.99;96659.22;4906682;29;20036;-73
2021/01/22 16:23:10;;;;;;;7.95;6.20;;;;;;;5.81;89.00;96667.50;4904251;29;21443;-76
2021/01/22 16:25:35;;;;;;;8.48;6.22;;;;;;;5.69;89.43;96667.91;4906811;29;20027;-74
2021/01/22 16:28:00;;;;;;;7.32;6.63;;;;;;;5.66;89.77;96652.59;4903906;29;20087;-74
2021/01/22 16:30:26;;;;;;;23.42;16.60;;;;;;;5.82;89.17;96643.47;4906000;29;20036;-75
2021/01/22 16:32:51;;;;;;;8.35;6.43;;;;;;;5.76;89.49;96643.69;4907075;29;20035;-74
2021/01/22 16:35:17;;;;;;;7.45;6.45;;;;;;;5.62;89.63;96641.56;4901469;29;20043;-74
2021/01/22 16:37:42;;;;;;;48.17;21.58;;;;;;;5.65;89.59;96640.63;4903672;29;20035;-74
2021/01/22 16:40:11;;;;;;;14.98;10.35;;;;;;;5.63;90.46;96632.97;4905050;29;20063;-74
2021/01/22 16:42:36;;;;;;;8.38;6.10;;;;;;;5.74;88.94;96624.91;4904261;29;20451;-74
2021/01/22 16:45:03;;;;;;;7.22;6.47;;;;;;;5.67;89.74;96608.88;4905350;29;20183;-74
2021/01/22 16:47:28;;;;;;;11.40;7.70;;;;;;;5.79;89.44;96612.75;4902712;29;20032;-73
2021/01/22 16:49:53;;;;;;;10.63;7.50;;;;;;;5.70;90.18;96607.91;4903211;29;21490;-73
2021/01/22 16:52:19;;;;;;;21.88;9.35;;;;;;;5.63;89.93;96611.59;4902696;29;20044;-74
2021/01/22 16:54:44;;;;;;;15.27;8.98;;;;;;;5.46;90.51;96606.16;4905525;29;20397;-74
2021/01/22 16:57:10;;;;;;;15.10;8.18;;;;;;;5.40;90.90;96605.47;4902382;29;20032;-74
2021/01/22 16:59:36;;;;;;;10.75;8.75;;;;;;;5.44;91.35;96600.25;4907002;29;20032;-74
2021/01/22 17:02:01;;;;;;;13.40;9.20;;;;;;;5.40;91.51;96604.63;4901622;29;20035;-74
2021/01/22 17:04:26;;;;;;;14.32;9.15;;;;;;;5.49;90.89;96611.19;4902212;29;20036;-74
2021/01/22 17:06:52;;;;;;;23.30;12.68;;;;;;;5.46;90.93;96613.84;4904190;29;20060;-74
2021/01/22 17:09:18;;;;;;;47.25;23.83;;;;;;;5.46;91.01;96619.00;4903219;29;20055;-74
2021/01/22 17:11:43;;;;;;;24.52;12.02;;;;;;;5.50;91.56;96615.44;4905579;29;20024;-73
2021/01/22 17:14:09;;;;;;;11.60;9.63;;;;;;;5.92;89.80;96618.34;4903730;29;20099;-75
2021/01/22 17:16:34;;;;;;;12.32;9.55;;;;;;;5.83;89.96;96624.59;4906299;29;20029;-74
2021/01/22 17:18:59;;;;;;;13.82;8.27;;;;;;;5.75;89.84;96620.59;4905199;29;20438;-74
2021/01/22 17:21:25;;;;;;;17.83;11.10;;;;;;;5.69;90.54;96626.78;4905307;29;20087;-74
2021/01/22 17:23:50;;;;;;;44.45;20.23;;;;;;;5.68;90.29;96636.22;4903828;29;20044;-74
2021/01/22 17:26:15;;;;;;;16.70;10.50;;;;;;;5.71;90.07;96637.88;4906448;29;20024;-74
2021/01/22 17:28:41;;;;;;;18.55;11.00;;;;;;;5.70;90.43;96638.75;4905447;29;20043;-74
2021/01/22 17:31:06;;;;;;;23.77;14.10;;;;;;;5.74;90.27;96640.31;4904927;29;20036;-74
2021/01/22 17:33:32;;;;;;;32.72;14.02;;;;;;;5.94;89.54;96642.25;4906888;29;20036;-74